Hinckley, United Kingdom
Current Conditions -  °F | °C
As of 1:50 AM on Tuesday 25 Nov 2014 (Local Time) from EGBE Reporting Station
Moderate Fog Moderate Fog  
Wind Chill: 30°   Ceiling: Unl
Heat Index: 30°   Visibility: 0.09mi
Dew Point: 30°   Wind: 2mph
Humidity: 100%   Direction: 140°SE
Pressure: 30.3"   Gusts: NA
Location:  52.54°N, 1.37°W
Report Text: EGBE 250150Z 14002KT 0150 FZFG VV/// M01/M01 Q1026
Loading
Personal Weather Stations






























Interactive Weather Map New forecast layout! Learn more

10-Day Weather Forecast

Advertisements
Track Severe Weather on mobile